x

East Bahamas - 335 Nm East Of San Salvador Is, Bahamas (41046) Wave Buoy

2:50pm - Tue 3rd Mar 2015 All times are UTC.

  • Sig Wave height 6.6ft
  • Swell Direction
  • Peak Period 9s
  • Average Period 7s
  • Wind
    13mph, 16mph gusts
  • Sea Temp 78°f
  • Air Temp 76°f
  • Sea Pressure 1022.5mb

More Historic Weather Station data

Upgrade to MSW Pro to gain access to the past 30 days of data for over 8000 Wavebouys and Weather Stations around the globe.

Join Pro

Comparision Forecast

View Surf forecast
   
Tue 03/03 2:50pm 6.5ft 9s 7s 13 16 mph 1022.5mb 78f 76f
1:50pm 7ft 10s 7s 13 16 mph 1022.1mb 78f 76f
12:50pm 6.5ft 9s 7s 13 16 mph 1021.4mb 78f 76f
11:50am 7ft 10s 7s 11 16 mph 1020.7mb 78f 76f
10:50am 6.5ft 9s 7s 13 18 mph 1020mb 78f 75f
9:50am 6ft 10s 7s 11 16 mph 1019.6mb 78f 75f
8:50am 7ft 8s 7s 11 16 mph 1019.3mb 78f 75f
7:50am 7ft 9s 7s 11 16 mph 1019.6mb 78f 75f
6:50am 7ft 9s 7s 11 16 mph 1019.6mb 78f 75f
5:50am 7.5ft 10s 7s 11 16 mph 1020.3mb 78f 76f
4:50am 8ft 10s 7s 13 16 mph 1021.1mb 78f 76f
3:50am 6ft 9s 7s 11 16 mph 1021.4mb 78f 76f
2:50am 7ft 10s 7s 11 13 mph 1021.6mb 78f 76f
1:50am 7ft 9s 7s 11 13 mph 1021.7mb 78f 76f
12:50am 7ft 9s 7s 11 13 mph 1021.5mb 78f 76f
Mon 03/02 11:50pm 7ft 9s 7s 9 11 mph 1021.3mb 78f 76f
10:50pm 7ft 9s 7s 9 11 mph 1020.9mb 78f 76f
9:50pm 7.5ft 9s 7s 13 16 mph 1020.3mb 78f 77f
8:50pm 7ft 9s 7s 11 13 mph 1020.1mb 78f 77f
7:50pm 7ft 9s 7s 13 16 mph 1020.3mb 78f 76f
6:50pm 7.5ft 9s 7s 13 16 mph 1020.9mb 78f 76f
5:50pm 8ft 10s 7s 13 16 mph 1021.7mb 78f 76f
4:50pm 8ft 10s 7s 18 20 mph 1022.2mb 78f 76f
3:50pm 8ft 9s 7s 16 20 mph 1023.1mb 78f 76f
2:50pm 7ft 9s 7s 18 20 mph 1023.6mb 78f 76f
1:50pm 7.5ft 9s 7s 18 20 mph 1023.5mb 77f 76f
12:50pm 8ft 9s 7s 18 22 mph 1022.8mb 77f 76f
11:50am 8ft 10s 7s 18 22 mph 1022.5mb 77f 75f
10:50am 8ft 10s 7s 18 22 mph 1022.2mb 77f 75f
9:50am 7ft 10s 6s 18 20 mph 1021.6mb 77f 75f
8:50am 8ft 9s 7s 16 18 mph 1021.5mb 77f 76f
7:50am 7.5ft 10s 6s 18 20 mph 1021.7mb 77f 76f
6:50am 8ft 9s 6s 20 25 mph 1022.1mb 77f 75f
5:50am 7ft 9s 6s 18 20 mph 1023mb 77f 76f
4:50am 7ft 9s 6s 18 22 mph 1023.7mb 77f 76f
3:50am 7ft 10s 6s 18 22 mph 1024.2mb 77f 75f
2:50am 7ft 10s 6s 22 27 mph 1024.4mb 77f 73f
1:50am 7ft 9s 6s 25 29 mph 1024.1mb 77f 75f
12:50am 7ft 9s 6s 22 25 mph 1023.9mb 78f 75f
Sun 03/01 11:50pm 7.5ft 9s 6s 18 22 mph 1023.4mb 78f 76f
10:50pm 7ft 9s 6s 20 25 mph 1023.3mb 78f 76f
9:50pm 7ft 9s 6s 18 22 mph 1023.1mb 78f 77f
8:50pm 7ft 9s 6s 18 20 mph 1022.8mb 78f 77f
7:50pm 6ft 9s 6s 18 20 mph 1022.7mb 78f 77f
6:50pm 6ft 9s 6s 16 20 mph 1023.3mb 78f 77f
5:50pm 6.5ft 9s 6s 11 13 mph 1024mb 78f 76f
4:50pm 7ft 10s 6s 18 22 mph 1024.5mb 78f 75f
3:50pm 6.5ft 9s 6s 18 20 mph 1025.1mb 78f 76f
2:50pm 6.5ft 10s 6s 20 25 mph 1025.5mb 78f 77f
1:50pm 7ft 9s 6s 20 25 mph 1025.4mb 77f 76f
12:50pm 7ft 9s 6s 20 22 mph 1025.2mb 77f 76f
11:50am 7ft 9s 6s 20 22 mph 1024.5mb 77f 76f
10:50am 7ft 9s 6s 20 25 mph 1023.9mb 77f 76f
9:50am 6.5ft 10s 6s 18 22 mph 1023.4mb 77f 76f
8:50am 6ft 9s 6s 18 22 mph 1023.1mb 77f 76f
7:50am 6.5ft 10s 6s 18 20 mph 1023mb 77f 76f
6:50am 6ft 11s 6s 20 22 mph 1023.1mb 77f 76f
5:50am 6.5ft 9s 6s 18 22 mph 1023.9mb 77f 76f
4:50am 7ft 8s 6s 20 22 mph 1024.3mb 78f 77f
3:50am 6.5ft 9s 6s 18 20 mph 1024.7mb 78f 77f
2:50am 7ft 8s 6s 16 18 mph 1025mb 78f 77f
1:50am 7ft 8s 6s 16 20 mph 1024.9mb 78f 77f
12:50am 6.5ft 8s 6s 18 20 mph 1024.5mb 78f 77f
Sat 02/28 11:50pm 6.5ft 8s 6s 18 22 mph 1023.6mb 78f 77f
10:50pm 6ft 8s 6s 16 20 mph 1023.2mb 78f 77f
9:50pm 6ft 9s 6s 16 20 mph 1023mb 78f 77f
8:50pm 6ft 9s 6s 18 20 mph 1022.4mb 78f 77f
7:50pm 6ft 9s 6s 18 22 mph 1022.5mb 78f 77f
6:50pm 6ft 8s 6s 18 20 mph 1022.7mb 78f 77f
5:50pm 6.5ft 8s 6s 18 20 mph 1023.3mb 78f 77f
4:50pm 6ft 9s 6s 18 20 mph 1024.1mb 78f 77f
3:50pm 6ft 8s 6s 18 22 mph 1024.6mb 78f 77f
2:50pm 5.5ft 8s 6s 18 22 mph 1025mb 78f 77f
1:50pm 5.5ft 9s 6s 18 22 mph 1024.7mb 78f 77f
12:50pm 5.5ft 7s 6s 16 20 mph 1024.2mb 77f 77f
11:50am 5ft 8s 6s 18 20 mph 1023.4mb 77f 77f
10:50am 5ft 10s 6s 18 20 mph 1022.6mb 77f 77f
9:50am 5.5ft 9s 6s 16 20 mph 1022mb 77f 76f
8:50am 5ft 8s 6s 16 18 mph 1021.7mb 77f 76f
7:50am 5.5ft 7s 6s 18 20 mph 1021.7mb 77f 77f
6:50am 5.5ft 7s 6s 20 25 mph 1021.7mb 77f 77f
5:50am 5ft 8s 6s 18 22 mph 1022.6mb 78f 77f
4:50am 5ft 9s 5s 18 20 mph 1023.1mb 78f 77f
3:50am 5.5ft 8s 6s 18 20 mph 1023.1mb 78f 77f
2:50am 5ft 9s 6s 18 22 mph 1023.2mb 78f 77f
1:50am 5ft 8s 6s 18 20 mph 1022.9mb 78f 77f
12:50am 5.5ft 7s 6s 18 20 mph 1022.5mb 78f 77f
Fri 02/27 11:50pm 5ft 7s 6s 16 20 mph 1021.9mb 78f 77f
10:50pm 5ft 8s 6s 16 20 mph 1021.3mb 78f 78f
9:50pm 5ft 8s 5s 16 20 mph 1020.9mb 78f 78f
8:50pm 5ft 7s 5s 16 20 mph 1020.4mb 78f 78f
7:50pm 6ft 8s 6s 16 20 mph 1020.1mb 78f 78f
6:50pm 5.5ft 9s 6s 16 18 mph 1020.4mb 78f 78f
5:50pm 5ft 7s 5s 16 18 mph 1020.8mb 78f 78f
4:50pm 5ft 10s 6s 16 18 mph 1021.5mb 78f 78f